Time;durP1;ratioP1;P1;durP2;ratioP2;P2;SDS_P1;SDS_P2;PMS_P1;PMS_P2;Temp;Humidity;BMP_temperature;BMP_pressure;BME280_temperature;BME280_humidity;BME280_pressure;Samples;Min_cycle;Max_cycle;Signal;HPM_P1;HPM_P2
2023/04/03 00:00:43;;;;;;;1.67;0.80;;;;;;;;;;5108090;27;86757;-65
2023/04/03 00:03:12;;;;;;;0.77;0.77;;;;;;;;;;5117936;27;87945;-65
2023/04/03 00:05:41;;;;;;;0.93;0.87;;;;;;;;;;5118028;27;88963;-65
2023/04/03 00:08:09;;;;;;;2.27;0.80;;;;;;;;;;5113493;27;88757;-65
2023/04/03 00:10:37;;;;;;;1.47;0.80;;;;;;;;;;5111601;27;87160;-65
2023/04/03 00:13:06;;;;;;;1.37;0.80;;;;;;;;;;5101807;27;87775;-65
2023/04/03 00:15:35;;;;;;;1.47;0.73;;;;;;;;;;5118064;27;88864;-65
2023/04/03 00:18:03;;;;;;;1.03;0.70;;;;;;;;;;5111814;27;88683;-65
2023/04/03 00:20:33;;;;;;;1.73;0.93;;;;;;;;;;5114183;27;88020;-64
2023/04/03 00:23:02;;;;;;;0.83;0.77;;;;;;;;;;5109682;27;87003;-65
2023/04/03 00:25:30;;;;;;;1.00;0.70;;;;;;;;;;5107565;27;89173;-65
2023/04/03 00:27:59;;;;;;;1.37;0.93;;;;;;;;;;5117301;27;87592;-64
2023/04/03 00:30:27;;;;;;;0.80;0.77;;;;;;;;;;5104818;27;87088;-65
2023/04/03 00:32:55;;;;;;;1.00;0.97;;;;;;;;;;5109409;27;87067;-65
2023/04/03 00:35:24;;;;;;;1.00;0.70;;;;;;;;;;5101919;27;89170;-65
2023/04/03 00:37:53;;;;;;;0.70;0.70;;;;;;;;;;5104389;27;88885;-64
2023/04/03 00:40:22;;;;;;;0.80;0.80;;;;;;;;;;5101710;27;88662;-64
2023/04/03 00:42:51;;;;;;;0.77;0.57;;;;;;;;;;5112443;27;88944;-65
2023/04/03 00:45:25;;;;;;;0.53;0.47;;;;;;;;;;5102281;27;90329;-65
2023/04/03 00:47:54;;;;;;;1.23;1.03;;;;;;;;;;5112129;27;89903;-64
2023/04/03 00:50:22;;;;;;;1.60;0.40;;;;;;;;;;5100937;27;86990;-65
2023/04/03 00:52:50;;;;;;;2.20;0.70;;;;;;;;;;5120903;27;87222;-65
2023/04/03 00:55:20;;;;;;;1.87;0.90;;;;;;;;;;5115325;27;88560;-65
2023/04/03 00:57:48;;;;;;;0.80;0.80;;;;;;;;;;5112146;27;88786;-64
2023/04/03 01:00:18;;;;;;;0.77;0.60;;;;;;;;;;5102093;27;87740;-65
2023/04/03 01:02:46;;;;;;;0.93;0.70;;;;;;;;;;5105004;27;88126;-65
2023/04/03 01:05:14;;;;;;;0.97;0.83;;;;;;;;;;5104791;27;89067;-65
2023/04/03 01:07:42;;;;;;;1.00;0.90;;;;;;;;;;5108589;27;89161;-67
2023/04/03 01:10:13;;;;;;;0.83;0.63;;;;;;;;;;5103423;27;88041;-64
2023/04/03 01:12:43;;;;;;;1.07;0.60;;;;;;;;;;5103275;27;88642;-65
2023/04/03 01:15:14;;;;;;;0.47;0.47;;;;;;;;;;5106649;27;88497;-65
2023/04/03 01:17:43;;;;;;;0.80;0.80;;;;;;;;;;5105454;27;88550;-67
2023/04/03 01:20:36;;;;;;;1.00;1.00;;;;;;;;;;5106650;27;87147;-65
2023/04/03 01:23:07;;;;;;;0.50;0.50;;;;;;;;;;5105546;27;87173;-67
2023/04/03 01:25:36;;;;;;;0.83;0.80;;;;;;;;;;5105943;27;88794;-67
2023/04/03 01:28:06;;;;;;;1.90;0.87;;;;;;;;;;5104088;27;88931;-67
2023/04/03 01:30:35;;;;;;;0.70;0.70;;;;;;;;;;5103594;27;87116;-67
2023/04/03 01:33:05;;;;;;;0.30;0.30;;;;;;;;;;5108763;27;88286;-67
2023/04/03 01:35:33;;;;;;;1.10;1.00;;;;;;;;;;5102502;27;88946;-67
2023/04/03 01:38:01;;;;;;;1.83;1.07;;;;;;;;;;5105205;27;88796;-67
2023/04/03 01:40:30;;;;;;;0.70;0.67;;;;;;;;;;5100598;27;87291;-67
2023/04/03 01:42:58;;;;;;;0.70;0.70;;;;;;;;;;5112344;27;87128;-67
2023/04/03 01:45:26;;;;;;;1.20;0.77;;;;;;;;;;5108911;27;89228;-67
2023/04/03 01:47:55;;;;;;;0.87;0.67;;;;;;;;;;5108104;27;89052;-67
2023/04/03 01:50:24;;;;;;;1.30;0.90;;;;;;;;;;5103059;27;87161;-67
2023/04/03 01:52:52;;;;;;;2.13;0.70;;;;;;;;;;5086024;27;86484;-67
2023/04/03 01:55:21;;;;;;;0.97;0.80;;;;;;;;;;5084985;27;88909;-67
2023/04/03 01:57:49;;;;;;;0.57;0.57;;;;;;;;;;5085909;27;88369;-67
2023/04/03 02:00:17;;;;;;;1.07;0.90;;;;;;;;;;5092472;27;88050;-67
2023/04/03 02:02:46;;;;;;;0.87;0.80;;;;;;;;;;5102691;27;88822;-67
2023/04/03 02:05:14;;;;;;;0.57;0.57;;;;;;;;;;5119685;27;89290;-64
2023/04/03 02:07:44;;;;;;;0.83;0.83;;;;;;;;;;5104858;27;88773;-67
2023/04/03 02:10:12;;;;;;;1.03;0.57;;;;;;;;;;5104589;27;87007;-66
2023/04/03 02:12:40;;;;;;;0.87;0.50;;;;;;;;;;5103491;27;88869;-67
2023/04/03 02:15:09;;;;;;;1.33;0.67;;;;;;;;;;5101043;27;89174;-67
2023/04/03 02:17:37;;;;;;;0.60;0.60;;;;;;;;;;5106874;27;88736;-65
2023/04/03 02:20:06;;;;;;;0.63;0.63;;;;;;;;;;5105701;27;87174;-67
2023/04/03 02:22:35;;;;;;;0.37;0.37;;;;;;;;;;5100069;27;87090;-66
2023/04/03 02:25:04;;;;;;;1.00;1.00;;;;;;;;;;5102663;27;90128;-66
2023/04/03 02:27:33;;;;;;;1.00;0.83;;;;;;;;;;5115884;27;89456;-67
2023/04/03 02:30:01;;;;;;;0.97;0.80;;;;;;;;;;5104131;27;87067;-67
2023/04/03 02:32:29;;;;;;;0.67;0.67;;;;;;;;;;5101351;27;87096;-67
2023/04/03 02:34:57;;;;;;;1.23;1.10;;;;;;;;;;5098550;27;89154;-66
2023/04/03 02:37:26;;;;;;;0.67;0.63;;;;;;;;;;5103810;27;88645;-67
2023/04/03 02:39:54;;;;;;;0.80;0.80;;;;;;;;;;5103267;27;88013;-66
2023/04/03 02:42:24;;;;;;;0.83;0.70;;;;;;;;;;5104075;27;87027;-66
2023/04/03 02:44:52;;;;;;;1.03;0.80;;;;;;;;;;5118617;27;89089;-66
2023/04/03 02:47:20;;;;;;;1.30;0.83;;;;;;;;;;5095550;27;88814;-66
2023/04/03 02:49:49;;;;;;;1.33;0.60;;;;;;;;;;5088932;27;88094;-66
2023/04/03 02:52:17;;;;;;;0.87;0.60;;;;;;;;;;5092216;27;86903;-66
2023/04/03 02:54:45;;;;;;;1.13;0.77;;;;;;;;;;5120193;27;88783;-66
2023/04/03 02:57:14;;;;;;;0.70;0.70;;;;;;;;;;5096941;27;88830;-66
2023/04/03 02:59:44;;;;;;;0.60;0.60;;;;;;;;;;5118111;27;87001;-66
2023/04/03 03:02:12;;;;;;;0.67;0.67;;;;;;;;;;5106844;27;87098;-66
2023/04/03 03:04:40;;;;;;;0.70;0.63;;;;;;;;;;5084752;27;89113;-66
2023/04/03 03:07:08;;;;;;;0.90;0.70;;;;;;;;;;5101145;27;88743;-66
2023/04/03 03:09:37;;;;;;;0.70;0.70;;;;;;;;;;5117000;27;87190;-67
2023/04/03 03:12:05;;;;;;;0.80;0.80;;;;;;;;;;5088828;27;87514;-67
2023/04/03 03:14:33;;;;;;;1.87;1.00;;;;;;;;;;5102124;27;90103;-66
2023/04/03 03:17:03;;;;;;;0.93;0.93;;;;;;;;;;5099391;27;89842;-67
2023/04/03 03:19:31;;;;;;;0.43;0.43;;;;;;;;;;5089030;27;87215;-66
2023/04/03 03:22:00;;;;;;;0.73;0.60;;;;;;;;;;5109335;27;87093;-67
2023/04/03 03:24:28;;;;;;;0.50;0.50;;;;;;;;;;5101866;27;89015;-66
2023/04/03 03:26:56;;;;;;;0.67;0.60;;;;;;;;;;5091898;27;87358;-66
2023/04/03 03:29:24;;;;;;;0.70;0.70;;;;;;;;;;5113827;27;87045;-66
2023/04/03 03:31:53;;;;;;;0.50;0.50;;;;;;;;;;5110178;27;86309;-66
2023/04/03 03:34:22;;;;;;;1.13;0.80;;;;;;;;;;5102848;27;89468;-66
2023/04/03 03:36:51;;;;;;;1.17;1.10;;;;;;;;;;5093322;27;88669;-67
2023/04/03 03:39:19;;;;;;;0.53;0.50;;;;;;;;;;5081279;27;87971;-66
2023/04/03 03:41:49;;;;;;;0.87;0.70;;;;;;;;;;5090640;27;87504;-66
2023/04/03 03:44:17;;;;;;;0.90;0.60;;;;;;;;;;5081692;27;89143;-67
2023/04/03 03:46:45;;;;;;;0.70;0.70;;;;;;;;;;5081688;27;88950;-67
2023/04/03 03:49:14;;;;;;;1.03;0.60;;;;;;;;;;5092221;27;87053;-66
2023/04/03 03:51:43;;;;;;;0.60;0.60;;;;;;;;;;5088701;27;86962;-67
2023/04/03 03:54:12;;;;;;;2.40;0.60;;;;;;;;;;5098739;27;89203;-67
2023/04/03 03:56:40;;;;;;;0.97;0.70;;;;;;;;;;5094516;27;88893;-67
2023/04/03 03:59:08;;;;;;;1.23;0.70;;;;;;;;;;5118799;27;86979;-66
2023/04/03 04:01:36;;;;;;;0.90;0.60;;;;;;;;;;5101803;27;87119;-67
2023/04/03 04:04:05;;;;;;;2.50;0.73;;;;;;;;;;5111264;27;89691;-67
2023/04/03 04:06:33;;;;;;;2.40;0.70;;;;;;;;;;5102692;27;89362;-67
2023/04/03 04:09:03;;;;;;;1.47;0.60;;;;;;;;;;5113726;27;87084;-67
2023/04/03 04:11:32;;;;;;;0.53;0.53;;;;;;;;;;5110395;27;86983;-67
2023/04/03 04:14:00;;;;;;;0.60;0.60;;;;;;;;;;5108885;27;89075;-67
2023/04/03 04:16:28;;;;;;;0.90;0.70;;;;;;;;;;5113998;27;88588;-67
2023/04/03 04:18:57;;;;;;;0.60;0.60;;;;;;;;;;5108678;27;87058;-67
2023/04/03 04:21:25;;;;;;;1.43;0.73;;;;;;;;;;5112626;27;86084;-67
2023/04/03 04:23:54;;;;;;;1.27;0.50;;;;;;;;;;5108413;27;89198;-67
2023/04/03 04:26:24;;;;;;;0.57;0.57;;;;;;;;;;5117581;27;88008;-67
2023/04/03 04:28:52;;;;;;;0.93;0.50;;;;;;;;;;5115823;27;87971;-67
2023/04/03 04:31:20;;;;;;;0.60;0.60;;;;;;;;;;5109335;27;86932;-66
2023/04/03 04:33:48;;;;;;;0.43;0.43;;;;;;;;;;5125382;27;89085;-66
2023/04/03 04:36:17;;;;;;;0.47;0.47;;;;;;;;;;5105471;27;88927;-66
2023/04/03 04:38:45;;;;;;;0.50;0.50;;;;;;;;;;5106189;27;87021;-65
2023/04/03 04:41:14;;;;;;;0.60;0.60;;;;;;;;;;5099958;27;86945;-65
2023/04/03 04:43:44;;;;;;;0.43;0.43;;;;;;;;;;5084584;27;89150;-66
2023/04/03 04:46:12;;;;;;;0.30;0.30;;;;;;;;;;5084982;27;88737;-66
2023/04/03 04:48:41;;;;;;;0.50;0.50;;;;;;;;;;5099136;27;87347;-66
2023/04/03 04:51:09;;;;;;;1.47;0.70;;;;;;;;;;5087363;27;86916;-66
2023/04/03 04:53:37;;;;;;;0.47;0.40;;;;;;;;;;5099109;27;90033;-66
2023/04/03 04:56:06;;;;;;;0.60;0.60;;;;;;;;;;5090453;27;90195;-66
2023/04/03 04:58:34;;;;;;;0.50;0.30;;;;;;;;;;5090593;27;87012;-66
2023/04/03 05:01:04;;;;;;;0.40;0.40;;;;;;;;;;5086131;27;87152;-66
2023/04/03 05:03:32;;;;;;;0.83;0.43;;;;;;;;;;5104888;27;88924;-66
2023/04/03 05:06:01;;;;;;;0.60;0.57;;;;;;;;;;5087923;27;88769;-66
2023/04/03 05:08:29;;;;;;;0.73;0.57;;;;;;;;;;5101409;27;87056;-66
2023/04/03 05:10:57;;;;;;;0.60;0.60;;;;;;;;;;5107850;27;86223;-66
2023/04/03 05:13:26;;;;;;;1.10;0.57;;;;;;;;;;5096792;27;89099;-66
2023/04/03 05:15:54;;;;;;;1.90;0.70;;;;;;;;;;5108660;27;88774;-66
2023/04/03 05:18:24;;;;;;;0.60;0.60;;;;;;;;;;5097644;27;89098;-66
2023/04/03 05:20:52;;;;;;;0.50;0.50;;;;;;;;;;5113907;27;87109;-66
2023/04/03 05:23:21;;;;;;;0.80;0.80;;;;;;;;;;5109762;27;89165;-66
2023/04/03 05:25:49;;;;;;;0.53;0.50;;;;;;;;;;5113826;27;88614;-66
2023/04/03 05:28:17;;;;;;;0.97;0.73;;;;;;;;;;5114403;27;87204;-66
2023/04/03 05:30:46;;;;;;;0.57;0.53;;;;;;;;;;5112773;27;87076;-66
2023/04/03 05:33:14;;;;;;;0.90;0.90;;;;;;;;;;5090033;27;88859;-66
2023/04/03 05:35:43;;;;;;;0.50;0.43;;;;;;;;;;5107083;27;88583;-66
2023/04/03 05:38:12;;;;;;;0.50;0.50;;;;;;;;;;5101188;27;87038;-66
2023/04/03 05:40:40;;;;;;;0.40;0.40;;;;;;;;;;5104887;27;87188;-66
2023/04/03 05:43:09;;;;;;;0.50;0.50;;;;;;;;;;5082937;27;90030;-66
2023/04/03 05:45:37;;;;;;;0.30;0.30;;;;;;;;;;5103900;27;89447;-69
2023/04/03 05:48:06;;;;;;;0.57;0.57;;;;;;;;;;5099372;27;87013;-69
2023/04/03 05:50:34;;;;;;;0.70;0.70;;;;;;;;;;5094690;27;87112;-70
2023/04/03 05:53:04;;;;;;;0.50;0.47;;;;;;;;;;5112510;27;89151;-71
2023/04/03 05:55:32;;;;;;;0.30;0.30;;;;;;;;;;5086532;27;88856;-68
2023/04/03 05:58:00;;;;;;;0.30;0.30;;;;;;;;;;5097691;27;86925;-69
2023/04/03 06:00:28;;;;;;;0.50;0.50;;;;;;;;;;5086614;27;86381;-68
2023/04/03 06:02:57;;;;;;;0.60;0.60;;;;;;;;;;5103876;27;89301;-60
2023/04/03 06:05:25;;;;;;;1.03;0.57;;;;;;;;;;5083059;27;88661;-61
2023/04/03 06:07:53;;;;;;;1.57;0.40;;;;;;;;;;5104916;27;88148;-60
2023/04/03 06:10:23;;;;;;;0.40;0.40;;;;;;;;;;5083315;27;87072;-62
2023/04/03 06:12:52;;;;;;;0.40;0.40;;;;;;;;;;5081981;27;89221;-62
2023/04/03 06:15:21;;;;;;;0.60;0.60;;;;;;;;;;5084514;27;88912;-62
2023/04/03 06:17:49;;;;;;;0.40;0.40;;;;;;;;;;5089739;27;88259;-62
2023/04/03 06:20:18;;;;;;;0.63;0.40;;;;;;;;;;5086231;27;87086;-62
2023/04/03 06:22:46;;;;;;;0.40;0.40;;;;;;;;;;5109441;27;89146;-62
2023/04/03 06:25:17;;;;;;;0.40;0.40;;;;;;;;;;5082186;27;88977;-62
2023/04/03 06:27:47;;;;;;;0.80;0.80;;;;;;;;;;5103526;27;87124;-62
2023/04/03 06:30:15;;;;;;;2.03;0.90;;;;;;;;;;5104913;27;86987;-62
2023/04/03 06:32:44;;;;;;;0.73;0.30;;;;;;;;;;5106475;27;90145;-61
2023/04/03 06:35:12;;;;;;;0.50;0.50;;;;;;;;;;5099520;27;89891;-63
2023/04/03 06:37:40;;;;;;;0.77;0.70;;;;;;;;;;5102677;27;87117;-63
2023/04/03 06:40:11;;;;;;;0.50;0.50;;;;;;;;;;5095285;27;87062;-64
2023/04/03 06:42:39;;;;;;;0.37;0.30;;;;;;;;;;5083104;27;88996;-62
2023/04/03 06:45:11;;;;;;;0.90;0.57;;;;;;;;;;5089286;27;88921;-63
2023/04/03 06:47:39;;;;;;;0.60;0.60;;;;;;;;;;5083316;27;87218;-63
2023/04/03 06:50:08;;;;;;;1.33;0.50;;;;;;;;;;5095153;27;86334;-63
2023/04/03 06:52:37;;;;;;;0.33;0.33;;;;;;;;;;5097204;27;89152;-63
2023/04/03 06:55:05;;;;;;;0.70;0.70;;;;;;;;;;5092117;27;89495;-63
2023/04/03 06:57:34;;;;;;;0.60;0.50;;;;;;;;;;5091265;27;88923;-63
2023/04/03 07:00:03;;;;;;;0.60;0.60;;;;;;;;;;5095272;27;87047;-63
2023/04/03 07:02:33;;;;;;;0.40;0.40;;;;;;;;;;5122444;27;88909;-63
2023/04/03 07:05:01;;;;;;;1.40;0.60;;;;;;;;;;5115577;27;88518;-63
2023/04/03 07:07:30;;;;;;;0.80;0.50;;;;;;;;;;5099832;27;86899;-63
2023/04/03 07:09:58;;;;;;;0.70;0.63;;;;;;;;;;5102003;27;87206;-63
2023/04/03 07:12:27;;;;;;;0.50;0.40;;;;;;;;;;5094329;27;89109;-63
2023/04/03 07:14:55;;;;;;;1.07;0.53;;;;;;;;;;5095803;27;89005;-63
2023/04/03 07:17:23;;;;;;;0.40;0.40;;;;;;;;;;5101594;27;87058;-63
2023/04/03 07:19:53;;;;;;;0.87;0.67;;;;;;;;;;5109596;27;88642;-63
2023/04/03 07:22:21;;;;;;;0.47;0.40;;;;;;;;;;5095180;27;90300;-63
2023/04/03 07:24:50;;;;;;;0.40;0.40;;;;;;;;;;5106473;27;89742;-63
2023/04/03 07:27:18;;;;;;;0.60;0.60;;;;;;;;;;5122436;27;87117;-61
2023/04/03 07:29:47;;;;;;;0.77;0.70;;;;;;;;;;5119835;27;86997;-61
2023/04/03 07:32:16;;;;;;;3.07;0.60;;;;;;;;;;5105252;27;89206;-61
2023/04/03 07:34:44;;;;;;;0.30;0.30;;;;;;;;;;5105887;27;88912;-61
2023/04/03 07:37:14;;;;;;;0.37;0.37;;;;;;;;;;5111333;27;87077;-61
2023/04/03 07:39:44;;;;;;;0.53;0.40;;;;;;;;;;5106212;27;86277;-61
2023/04/03 07:42:13;;;;;;;0.60;0.60;;;;;;;;;;5107124;27;87931;-64
2023/04/03 07:44:41;;;;;;;0.60;0.60;;;;;;;;;;5126914;27;88877;-64
2023/04/03 07:47:09;;;;;;;0.60;0.50;;;;;;;;;;5122892;27;88091;-66
2023/04/03 07:49:40;;;;;;;0.80;0.50;;;;;;;;;;5105425;27;87017;-66
2023/04/03 07:52:09;;;;;;;0.60;0.60;;;;;;;;;;5106503;27;89225;-63
2023/04/03 07:54:39;;;;;;;0.60;0.60;;;;;;;;;;5084787;27;89296;-64
2023/04/03 07:57:07;;;;;;;0.87;0.40;;;;;;;;;;5100821;27;86878;-66
2023/04/03 07:59:35;;;;;;;0.80;0.70;;;;;;;;;;5098870;27;87072;-65
2023/04/03 08:02:04;;;;;;;0.50;0.50;;;;;;;;;;5102960;27;89048;-67
2023/04/03 08:04:33;;;;;;;1.33;0.70;;;;;;;;;;5105020;27;88995;-64
2023/04/03 08:07:01;;;;;;;0.50;0.50;;;;;;;;;;5117913;27;87484;-65
2023/04/03 08:09:30;;;;;;;0.50;0.50;;;;;;;;;;5126121;27;86895;-65
2023/04/03 08:11:59;;;;;;;0.40;0.40;;;;;;;;;;5125581;27;90000;-65
2023/04/03 08:14:28;;;;;;;0.63;0.40;;;;;;;;;;5120326;27;89333;-65
2023/04/03 08:16:56;;;;;;;0.37;0.37;;;;;;;;;;5084496;27;86986;-65
2023/04/03 08:19:24;;;;;;;0.93;0.40;;;;;;;;;;5096352;27;87806;-68
2023/04/03 08:21:54;;;;;;;2.43;0.40;;;;;;;;;;5105568;27;89275;-63
2023/04/03 08:24:23;;;;;;;0.40;0.40;;;;;;;;;;5084202;27;89065;-63
2023/04/03 08:26:51;;;;;;;1.87;0.80;;;;;;;;;;5084978;27;87132;-63
2023/04/03 08:29:21;;;;;;;0.57;0.57;;;;;;;;;;5084908;27;86200;-63
2023/04/03 08:31:50;;;;;;;0.30;0.30;;;;;;;;;;5084223;27;88995;-63
2023/04/03 08:34:18;;;;;;;0.40;0.40;;;;;;;;;;5084393;27;88915;-62
2023/04/03 08:36:47;;;;;;;1.13;0.60;;;;;;;;;;5084185;27;87855;-62
2023/04/03 08:39:15;;;;;;;2.20;0.50;;;;;;;;;;5083363;27;87045;-65
2023/04/03 08:41:46;;;;;;;0.47;0.47;;;;;;;;;;5083990;27;88996;-63
2023/04/03 08:44:16;;;;;;;0.73;0.73;;;;;;;;;;5084406;27;88772;-63
2023/04/03 08:46:51;;;;;;;1.07;0.70;;;;;;;;;;5084430;27;87016;-62
2023/04/03 08:49:21;;;;;;;1.50;0.60;;;;;;;;;;5084198;27;86941;-63
2023/04/03 08:51:50;;;;;;;1.03;0.40;;;;;;;;;;5084385;27;89282;-62
2023/04/03 08:54:22;;;;;;;0.30;0.30;;;;;;;;;;5085025;27;87704;-63
2023/04/03 08:56:50;;;;;;;0.30;0.30;;;;;;;;;;5084287;27;86996;-63
2023/04/03 08:59:20;;;;;;;0.40;0.40;;;;;;;;;;5083819;27;86861;-62
2023/04/03 09:01:51;;;;;;;0.43;0.43;;;;;;;;;;5083288;27;90139;-63
2023/04/03 09:04:19;;;;;;;0.40;0.40;;;;;;;;;;5083524;27;89798;-63
2023/04/03 09:06:50;;;;;;;0.50;0.50;;;;;;;;;;5084198;27;86896;-62
2023/04/03 09:09:22;;;;;;;0.30;0.30;;;;;;;;;;5084038;27;87003;-63
2023/04/03 09:11:52;;;;;;;0.53;0.53;;;;;;;;;;5083980;27;88887;-62
2023/04/03 09:14:23;;;;;;;0.47;0.47;;;;;;;;;;5083818;27;88866;-63
2023/04/03 09:16:54;;;;;;;0.47;0.47;;;;;;;;;;5083246;27;87075;-62
2023/04/03 09:19:23;;;;;;;0.50;0.50;;;;;;;;;;5100368;27;86215;-62
2023/04/03 09:21:52;;;;;;;0.53;0.53;;;;;;;;;;5103947;27;89568;-63
2023/04/03 09:24:20;;;;;;;0.53;0.53;;;;;;;;;;5104634;27;88991;-64
2023/04/03 09:26:50;;;;;;;0.77;0.60;;;;;;;;;;5104077;27;88024;-63
2023/04/03 09:29:19;;;;;;;1.80;0.97;;;;;;;;;;5104829;27;87038;-65
2023/04/03 09:31:48;;;;;;;0.33;0.33;;;;;;;;;;5104379;27;89149;-64
2023/04/03 09:34:20;;;;;;;1.63;0.60;;;;;;;;;;5103740;27;89219;-63
2023/04/03 09:36:49;;;;;;;1.40;0.50;;;;;;;;;;5104400;27;87026;-64
2023/04/03 09:39:18;;;;;;;0.43;0.43;;;;;;;;;;5104200;27;87038;-65
2023/04/03 09:41:56;;;;;;;1.13;0.47;;;;;;;;;;5103657;27;88010;-65
2023/04/03 09:44:25;;;;;;;0.40;0.33;;;;;;;;;;5104613;27;88729;-64
2023/04/03 09:46:54;;;;;;;0.30;0.30;;;;;;;;;;5104422;27;87054;-64
2023/04/03 09:49:23;;;;;;;0.40;0.40;;;;;;;;;;5103563;27;87654;-65
2023/04/03 09:51:53;;;;;;;0.30;0.30;;;;;;;;;;5103158;27;90371;-62
2023/04/03 09:54:35;;;;;;;0.57;0.30;;;;;;;;;;5100379;27;89673;-63
2023/04/03 09:57:06;;;;;;;0.67;0.43;;;;;;;;;;5103464;27;86928;-65
2023/04/03 09:59:34;;;;;;;0.77;0.63;;;;;;;;;;5084545;27;86977;-65
2023/04/03 10:02:03;;;;;;;0.30;0.30;;;;;;;;;;5082856;27;89102;-64
2023/04/03 10:04:40;;;;;;;0.40;0.40;;;;;;;;;;5094799;27;88890;-62
2023/04/03 10:07:23;;;;;;;4.10;0.37;;;;;;;;;;5104018;27;86745;-63
2023/04/03 10:09:56;;;;;;;0.33;0.33;;;;;;;;;;5103953;27;86263;-62
2023/04/03 10:12:24;;;;;;;0.90;0.50;;;;;;;;;;5102512;27;87814;-65
2023/04/03 10:14:56;;;;;;;0.40;0.40;;;;;;;;;;5099062;27;89498;-65
2023/04/03 10:17:26;;;;;;;0.30;0.30;;;;;;;;;;5082228;27;88023;-62
2023/04/03 10:19:57;;;;;;;0.30;0.30;;;;;;;;;;5082430;27;86905;-63
2023/04/03 10:22:29;;;;;;;0.30;0.30;;;;;;;;;;5083015;27;88728;-63
2023/04/03 10:25:01;;;;;;;0.40;0.40;;;;;;;;;;5082793;27;88925;-64
2023/04/03 10:27:33;;;;;;;0.20;0.20;;;;;;;;;;5100608;27;87029;-63
2023/04/03 10:30:03;;;;;;;0.20;0.20;;;;;;;;;;5103514;27;86953;-63
2023/04/03 10:32:37;;;;;;;1.27;0.37;;;;;;;;;;5103267;27;89164;-63
2023/04/03 10:35:12;;;;;;;0.20;0.20;;;;;;;;;;5103363;27;88843;-63
2023/04/03 10:37:43;;;;;;;0.30;0.30;;;;;;;;;;5103630;27;86984;-62
2023/04/03 10:40:16;;;;;;;0.47;0.40;;;;;;;;;;5102735;27;87698;-63
2023/04/03 10:42:47;;;;;;;0.60;0.40;;;;;;;;;;5102300;27;89024;-65
2023/04/03 10:45:22;;;;;;;0.20;0.20;;;;;;;;;;5103057;27;89832;-65
2023/04/03 10:47:54;;;;;;;0.30;0.30;;;;;;;;;;5102944;27;86890;-65
2023/04/03 10:50:33;;;;;;;0.50;0.30;;;;;;;;;;5100691;27;87050;-65
2023/04/03 10:53:03;;;;;;;0.50;0.50;;;;;;;;;;5082513;27;88355;-64
2023/04/03 10:55:33;;;;;;;0.37;0.37;;;;;;;;;;5082643;27;88808;-65
2023/04/03 10:58:01;;;;;;;0.30;0.30;;;;;;;;;;5082585;27;86917;-64
2023/04/03 11:00:32;;;;;;;0.20;0.20;;;;;;;;;;5083329;27;86127;-64
2023/04/03 11:03:01;;;;;;;0.40;0.40;;;;;;;;;;5083795;27;89193;-65
2023/04/03 11:05:32;;;;;;;0.30;0.30;;;;;;;;;;5086031;27;88830;-64
2023/04/03 11:08:01;;;;;;;0.70;0.50;;;;;;;;;;5085816;27;88088;-64
2023/04/03 11:10:31;;;;;;;0.97;0.40;;;;;;;;;;5086578;27;86995;-64
2023/04/03 11:13:00;;;;;;;1.40;0.30;;;;;;;;;;5085944;27;89157;-63
2023/04/03 11:15:28;;;;;;;0.40;0.40;;;;;;;;;;5085391;27;87964;-64
2023/04/03 11:17:57;;;;;;;0.40;0.40;;;;;;;;;;5086425;27;87240;-64
2023/04/03 11:20:27;;;;;;;0.20;0.20;;;;;;;;;;5085722;27;86786;-65
2023/04/03 11:22:59;;;;;;;0.77;0.50;;;;;;;;;;5086281;27;87853;-65
2023/04/03 11:25:28;;;;;;;0.30;0.30;;;;;;;;;;5086144;27;88689;-64
2023/04/03 11:27:57;;;;;;;0.20;0.20;;;;;;;;;;5086237;27;87040;-63
2023/04/03 11:30:26;;;;;;;0.17;0.17;;;;;;;;;;5085694;27;86843;-63
2023/04/03 11:33:05;;;;;;;0.30;0.30;;;;;;;;;;5085641;27;89347;-63
2023/04/03 11:35:33;;;;;;;0.20;0.20;;;;;;;;;;5085147;27;88703;-62
2023/04/03 11:38:05;;;;;;;0.10;0.10;;;;;;;;;;5085845;27;86701;-63
2023/04/03 11:40:34;;;;;;;0.30;0.30;;;;;;;;;;5085249;27;86975;-63
2023/04/03 11:43:06;;;;;;;0.60;0.33;;;;;;;;;;5085507;27;88972;-62
2023/04/03 11:45:36;;;;;;;0.37;0.37;;;;;;;;;;5084818;27;88989;-63
2023/04/03 11:48:06;;;;;;;0.30;0.30;;;;;;;;;;5085507;27;87015;-63
2023/04/03 11:50:48;;;;;;;0.30;0.20;;;;;;;;;;5086074;27;86350;-62
2023/04/03 11:53:34;;;;;;;0.30;0.30;;;;;;;;;;5085510;27;88432;-62
2023/04/03 11:56:03;;;;;;;0.40;0.30;;;;;;;;;;5085366;27;88863;-62
2023/04/03 11:58:32;;;;;;;0.33;0.33;;;;;;;;;;5084667;27;87945;-63
2023/04/03 12:01:04;;;;;;;0.30;0.30;;;;;;;;;;5085326;27;87100;-62
2023/04/03 12:03:57;;;;;;;0.20;0.20;;;;;;;;;;5084962;27;89089;-62
2023/04/03 12:06:56;;;;;;;0.47;0.40;;;;;;;;;;5085123;27;88738;-63
2023/04/03 12:09:27;;;;;;;0.20;0.20;;;;;;;;;;5084830;27;87010;-62
2023/04/03 12:11:56;;;;;;;0.40;0.40;;;;;;;;;;5084517;27;87036;-62
2023/04/03 12:14:25;;;;;;;1.17;0.50;;;;;;;;;;5083095;27;89646;-62
2023/04/03 12:16:54;;;;;;;0.60;0.33;;;;;;;;;;5084643;27;88777;-62
2023/04/03 12:19:30;;;;;;;0.30;0.30;;;;;;;;;;5084986;27;86841;-62
2023/04/03 12:22:14;;;;;;;0.50;0.40;;;;;;;;;;5085326;27;86887;-63
2023/04/03 12:24:44;;;;;;;0.20;0.20;;;;;;;;;;5084099;27;90168;-62
2023/04/03 12:27:23;;;;;;;0.20;0.20;;;;;;;;;;5084381;27;88570;-64
2023/04/03 12:29:53;;;;;;;0.80;0.30;;;;;;;;;;5084491;27;87009;-62
2023/04/03 12:32:25;;;;;;;0.20;0.20;;;;;;;;;;5084245;27;87105;-63
2023/04/03 12:34:59;;;;;;;0.40;0.40;;;;;;;;;;5083716;27;89084;-63
2023/04/03 12:37:51;;;;;;;0.93;0.40;;;;;;;;;;5084435;27;88571;-63
2023/04/03 12:40:24;;;;;;;0.43;0.30;;;;;;;;;;5083909;27;87016;-65
2023/04/03 12:43:13;;;;;;;1.30;0.50;;;;;;;;;;5084597;27;86190;-64
2023/04/03 12:45:42;;;;;;;0.30;0.30;;;;;;;;;;5084594;27;88087;-65
2023/04/03 12:48:14;;;;;;;0.93;0.70;;;;;;;;;;5085239;27;88661;-65
2023/04/03 12:50:43;;;;;;;0.20;0.20;;;;;;;;;;5103514;27;87966;-65
2023/04/03 12:53:13;;;;;;;0.57;0.30;;;;;;;;;;5103775;27;87016;-64
2023/04/03 12:55:43;;;;;;;0.37;0.37;;;;;;;;;;5103975;27;88845;-64
2023/04/03 12:58:16;;;;;;;0.40;0.40;;;;;;;;;;5104006;27;88867;-64
2023/04/03 13:00:44;;;;;;;0.20;0.20;;;;;;;;;;5104201;27;86961;-64
2023/04/03 13:03:23;;;;;;;0.40;0.40;;;;;;;;;;5104217;27;87012;-65
2023/04/03 13:05:51;;;;;;;0.50;0.50;;;;;;;;;;5103167;27;89093;-65
2023/04/03 13:08:20;;;;;;;1.03;0.37;;;;;;;;;;5104267;27;88691;-64
2023/04/03 13:10:52;;;;;;;0.40;0.40;;;;;;;;;;5104022;27;87133;-64
2023/04/03 13:13:20;;;;;;;0.47;0.40;;;;;;;;;;5102023;27;87060;-64
2023/04/03 13:15:50;;;;;;;1.43;0.40;;;;;;;;;;5102318;27;89902;-64
2023/04/03 13:18:28;;;;;;;0.50;0.40;;;;;;;;;;5101176;27;89865;-64
2023/04/03 13:20:58;;;;;;;0.40;0.40;;;;;;;;;;5103709;27;86996;-64
2023/04/03 13:23:26;;;;;;;0.30;0.30;;;;;;;;;;5104202;27;87691;-65
2023/04/03 13:26:00;;;;;;;0.37;0.37;;;;;;;;;;5103635;27;89166;-64
2023/04/03 13:28:29;;;;;;;0.30;0.30;;;;;;;;;;5104508;27;88962;-65
2023/04/03 13:31:02;;;;;;;0.37;0.37;;;;;;;;;;5104157;27;87207;-65
2023/04/03 13:33:32;;;;;;;0.40;0.40;;;;;;;;;;5104250;27;86234;-65
2023/04/03 13:36:02;;;;;;;0.30;0.30;;;;;;;;;;5084938;27;89189;-64
2023/04/03 13:38:32;;;;;;;0.87;0.40;;;;;;;;;;5083080;27;88867;-64
2023/04/03 13:41:04;;;;;;;0.57;0.57;;;;;;;;;;5082812;27;87896;-64
2023/04/03 13:43:32;;;;;;;0.40;0.40;;;;;;;;;;5083600;27;87139;-65
2023/04/03 13:46:04;;;;;;;0.30;0.30;;;;;;;;;;5083062;27;89151;-64
2023/04/03 13:48:37;;;;;;;0.20;0.20;;;;;;;;;;5083092;27;88883;-64
2023/04/03 13:51:06;;;;;;;0.63;0.47;;;;;;;;;;5083368;27;86997;-64
2023/04/03 13:53:35;;;;;;;0.37;0.37;;;;;;;;;;5083606;27;87027;-65
2023/04/03 13:56:08;;;;;;;0.30;0.30;;;;;;;;;;5083371;27;89112;-64
2023/04/03 13:58:37;;;;;;;0.50;0.50;;;;;;;;;;5083637;27;88646;-64
2023/04/03 14:01:08;;;;;;;0.37;0.37;;;;;;;;;;5083493;27;86918;-64
2023/04/03 14:03:39;;;;;;;0.97;0.50;;;;;;;;;;5083056;27;86974;-64
2023/04/03 14:06:08;;;;;;;0.50;0.50;;;;;;;;;;5082184;27;89588;-64
2023/04/03 14:08:36;;;;;;;0.57;0.50;;;;;;;;;;5083010;27;89796;-64
2023/04/03 14:11:14;;;;;;;0.40;0.40;;;;;;;;;;5082476;27;86948;-64
2023/04/03 14:13:43;;;;;;;0.20;0.20;;;;;;;;;;5082984;27;87082;-64
2023/04/03 14:16:13;;;;;;;0.20;0.20;;;;;;;;;;5082472;27;88821;-64
2023/04/03 14:18:43;;;;;;;0.60;0.60;;;;;;;;;;5082677;27;88489;-65
2023/04/03 14:21:12;;;;;;;0.40;0.40;;;;;;;;;;5082407;27;87039;-64
2023/04/03 14:23:41;;;;;;;0.60;0.40;;;;;;;;;;5082542;27;86196;-64
2023/04/03 14:26:11;;;;;;;0.40;0.40;;;;;;;;;;5082460;27;89050;-64
2023/04/03 14:28:40;;;;;;;0.70;0.50;;;;;;;;;;5082463;27;89176;-64
2023/04/03 14:31:12;;;;;;;0.87;0.33;;;;;;;;;;5081775;27;87677;-64
2023/04/03 14:33:40;;;;;;;0.67;0.60;;;;;;;;;;5082587;27;87005;-64
2023/04/03 14:36:13;;;;;;;0.33;0.33;;;;;;;;;;5082302;27;89099;-64
2023/04/03 14:38:41;;;;;;;0.20;0.20;;;;;;;;;;5082043;27;88669;-64
2023/04/03 14:41:11;;;;;;;0.20;0.20;;;;;;;;;;5082646;27;86894;-64
2023/04/03 14:43:46;;;;;;;0.57;0.57;;;;;;;;;;5082810;27;86902;-64
2023/04/03 14:46:15;;;;;;;0.40;0.40;;;;;;;;;;5082372;27;88883;-64
2023/04/03 14:48:43;;;;;;;0.40;0.40;;;;;;;;;;5082804;27;88962;-64
2023/04/03 14:51:12;;;;;;;0.90;0.60;;;;;;;;;;5082274;27;87495;-64
2023/04/03 14:53:40;;;;;;;0.37;0.37;;;;;;;;;;5082572;27;87013;-64
2023/04/03 14:56:12;;;;;;;0.77;0.40;;;;;;;;;;5081882;27;90059;-64
2023/04/03 14:58:40;;;;;;;0.57;0.50;;;;;;;;;;5082390;27;89715;-64